sensor_id;sensor_type;location;lat;lon;timestamp;P1;durP1;ratioP1;P2;durP2;ratioP2
51298;SDS011;37382;45.192;9.790;2024-01-16T00:01:03;68.90;;;38.53;;
51298;SDS011;37382;45.192;9.790;2024-01-16T00:03:30;63.78;;;37.83;;
51298;SDS011;37382;45.192;9.790;2024-01-16T00:05:58;65.15;;;42.92;;
51298;SDS011;37382;45.192;9.790;2024-01-16T00:08:26;64.05;;;39.30;;
51298;SDS011;37382;45.192;9.790;2024-01-16T00:10:53;69.82;;;42.03;;
51298;SDS011;37382;45.192;9.790;2024-01-16T00:13:20;74.90;;;43.88;;
51298;SDS011;37382;45.192;9.790;2024-01-16T00:15:48;68.20;;;39.35;;
51298;SDS011;37382;45.192;9.790;2024-01-16T00:18:16;64.75;;;40.88;;
51298;SDS011;37382;45.192;9.790;2024-01-16T00:20:44;66.03;;;42.22;;
51298;SDS011;37382;45.192;9.790;2024-01-16T00:23:11;70.00;;;43.42;;
51298;SDS011;37382;45.192;9.790;2024-01-16T00:25:39;70.80;;;42.83;;
51298;SDS011;37382;45.192;9.790;2024-01-16T00:28:06;70.80;;;43.67;;
51298;SDS011;37382;45.192;9.790;2024-01-16T00:30:34;69.10;;;42.85;;
51298;SDS011;37382;45.192;9.790;2024-01-16T00:33:01;73.90;;;45.08;;
51298;SDS011;37382;45.192;9.790;2024-01-16T00:35:30;72.25;;;45.55;;
51298;SDS011;37382;45.192;9.790;2024-01-16T00:37:57;78.50;;;46.33;;
51298;SDS011;37382;45.192;9.790;2024-01-16T00:40:24;78.38;;;47.35;;
51298;SDS011;37382;45.192;9.790;2024-01-16T00:42:52;66.07;;;41.30;;
51298;SDS011;37382;45.192;9.790;2024-01-16T00:45:20;67.40;;;41.08;;
51298;SDS011;37382;45.192;9.790;2024-01-16T00:47:48;68.38;;;42.25;;
51298;SDS011;37382;45.192;9.790;2024-01-16T00:50:15;82.80;;;45.45;;
51298;SDS011;37382;45.192;9.790;2024-01-16T00:52:43;88.75;;;47.88;;
51298;SDS011;37382;45.192;9.790;2024-01-16T00:55:11;77.68;;;46.28;;
51298;SDS011;37382;45.192;9.790;2024-01-16T00:57:38;85.20;;;46.38;;
51298;SDS011;37382;45.192;9.790;2024-01-16T01:00:06;73.40;;;44.13;;
51298;SDS011;37382;45.192;9.790;2024-01-16T01:02:36;77.20;;;46.92;;
51298;SDS011;37382;45.192;9.790;2024-01-16T01:05:04;75.25;;;44.88;;
51298;SDS011;37382;45.192;9.790;2024-01-16T01:07:31;67.85;;;42.33;;
51298;SDS011;37382;45.192;9.790;2024-01-16T01:09:59;75.68;;;43.92;;
51298;SDS011;37382;45.192;9.790;2024-01-16T01:12:26;75.00;;;43.38;;
51298;SDS011;37382;45.192;9.790;2024-01-16T01:14:53;72.45;;;42.08;;
51298;SDS011;37382;45.192;9.790;2024-01-16T01:17:21;86.75;;;49.67;;
51298;SDS011;37382;45.192;9.790;2024-01-16T01:19:49;96.95;;;51.95;;
51298;SDS011;37382;45.192;9.790;2024-01-16T01:22:16;92.45;;;51.53;;
51298;SDS011;37382;45.192;9.790;2024-01-16T01:24:43;103.18;;;54.28;;
51298;SDS011;37382;45.192;9.790;2024-01-16T01:27:11;84.47;;;48.92;;
51298;SDS011;37382;45.192;9.790;2024-01-16T01:29:38;95.95;;;49.03;;
51298;SDS011;37382;45.192;9.790;2024-01-16T01:32:05;74.68;;;44.45;;
51298;SDS011;37382;45.192;9.790;2024-01-16T01:34:33;71.13;;;43.13;;
51298;SDS011;37382;45.192;9.790;2024-01-16T01:37:01;72.00;;;44.35;;
51298;SDS011;37382;45.192;9.790;2024-01-16T01:39:29;78.07;;;46.22;;
51298;SDS011;37382;45.192;9.790;2024-01-16T01:41:57;92.05;;;49.75;;
51298;SDS011;37382;45.192;9.790;2024-01-16T01:44:24;74.70;;;45.65;;
51298;SDS011;37382;45.192;9.790;2024-01-16T01:46:55;87.22;;;49.10;;
51298;SDS011;37382;45.192;9.790;2024-01-16T01:49:23;86.43;;;49.30;;
51298;SDS011;37382;45.192;9.790;2024-01-16T01:51:52;93.30;;;50.95;;
51298;SDS011;37382;45.192;9.790;2024-01-16T01:54:20;82.40;;;47.67;;
51298;SDS011;37382;45.192;9.790;2024-01-16T01:56:49;75.20;;;45.53;;
51298;SDS011;37382;45.192;9.790;2024-01-16T01:59:18;74.28;;;44.72;;
51298;SDS011;37382;45.192;9.790;2024-01-16T02:01:47;76.78;;;44.50;;
51298;SDS011;37382;45.192;9.790;2024-01-16T02:04:15;92.15;;;47.53;;
51298;SDS011;37382;45.192;9.790;2024-01-16T02:06:44;109.55;;;48.83;;
51298;SDS011;37382;45.192;9.790;2024-01-16T02:09:12;104.05;;;48.75;;
51298;SDS011;37382;45.192;9.790;2024-01-16T02:11:43;112.53;;;51.40;;
51298;SDS011;37382;45.192;9.790;2024-01-16T02:14:10;106.63;;;52.75;;
51298;SDS011;37382;45.192;9.790;2024-01-16T02:16:39;105.68;;;51.03;;
51298;SDS011;37382;45.192;9.790;2024-01-16T02:19:08;153.52;;;48.05;;
51298;SDS011;37382;45.192;9.790;2024-01-16T02:21:42;132.30;;;50.38;;
51298;SDS011;37382;45.192;9.790;2024-01-16T02:24:17;122.63;;;50.38;;
51298;SDS011;37382;45.192;9.790;2024-01-16T02:26:46;125.30;;;50.15;;
51298;SDS011;37382;45.192;9.790;2024-01-16T02:29:14;119.30;;;49.58;;
51298;SDS011;37382;45.192;9.790;2024-01-16T02:31:43;119.75;;;49.38;;
51298;SDS011;37382;45.192;9.790;2024-01-16T02:34:11;124.13;;;53.47;;
51298;SDS011;37382;45.192;9.790;2024-01-16T02:36:38;150.30;;;53.35;;
51298;SDS011;37382;45.192;9.790;2024-01-16T02:39:05;172.93;;;51.63;;
51298;SDS011;37382;45.192;9.790;2024-01-16T02:41:33;175.23;;;53.67;;
51298;SDS011;37382;45.192;9.790;2024-01-16T02:44:01;152.52;;;54.03;;
51298;SDS011;37382;45.192;9.790;2024-01-16T02:46:28;154.95;;;56.42;;
51298;SDS011;37382;45.192;9.790;2024-01-16T02:48:56;153.88;;;56.95;;
51298;SDS011;37382;45.192;9.790;2024-01-16T02:51:24;149.20;;;59.75;;
51298;SDS011;37382;45.192;9.790;2024-01-16T02:53:51;120.45;;;58.45;;
51298;SDS011;37382;45.192;9.790;2024-01-16T02:56:19;133.38;;;57.63;;
51298;SDS011;37382;45.192;9.790;2024-01-16T02:58:46;95.82;;;55.47;;
51298;SDS011;37382;45.192;9.790;2024-01-16T03:01:14;121.00;;;57.97;;
51298;SDS011;37382;45.192;9.790;2024-01-16T03:03:41;103.68;;;58.10;;
51298;SDS011;37382;45.192;9.790;2024-01-16T03:06:09;112.00;;;61.78;;
51298;SDS011;37382;45.192;9.790;2024-01-16T03:08:37;101.43;;;61.08;;
51298;SDS011;37382;45.192;9.790;2024-01-16T03:11:04;111.53;;;62.00;;
51298;SDS011;37382;45.192;9.790;2024-01-16T03:13:31;97.55;;;61.97;;
51298;SDS011;37382;45.192;9.790;2024-01-16T03:15:59;101.82;;;61.78;;
51298;SDS011;37382;45.192;9.790;2024-01-16T03:18:27;103.25;;;63.03;;
51298;SDS011;37382;45.192;9.790;2024-01-16T03:20:54;101.40;;;61.75;;
51298;SDS011;37382;45.192;9.790;2024-01-16T03:23:22;111.55;;;60.60;;
51298;SDS011;37382;45.192;9.790;2024-01-16T03:25:49;103.70;;;62.17;;
51298;SDS011;37382;45.192;9.790;2024-01-16T03:28:17;129.35;;;62.75;;
51298;SDS011;37382;45.192;9.790;2024-01-16T03:30:44;124.75;;;60.20;;
51298;SDS011;37382;45.192;9.790;2024-01-16T03:33:12;120.60;;;63.13;;
51298;SDS011;37382;45.192;9.790;2024-01-16T03:35:39;134.18;;;61.63;;
51298;SDS011;37382;45.192;9.790;2024-01-16T03:38:06;117.80;;;63.97;;
51298;SDS011;37382;45.192;9.790;2024-01-16T03:40:34;137.02;;;62.08;;
51298;SDS011;37382;45.192;9.790;2024-01-16T03:43:01;129.13;;;62.72;;
51298;SDS011;37382;45.192;9.790;2024-01-16T03:45:29;132.13;;;60.28;;
51298;SDS011;37382;45.192;9.790;2024-01-16T03:47:57;131.30;;;59.45;;
51298;SDS011;37382;45.192;9.790;2024-01-16T03:50:26;191.45;;;60.05;;
51298;SDS011;37382;45.192;9.790;2024-01-16T03:52:54;168.35;;;57.38;;
51298;SDS011;37382;45.192;9.790;2024-01-16T03:55:21;171.20;;;56.65;;
51298;SDS011;37382;45.192;9.790;2024-01-16T03:57:48;160.07;;;63.60;;
51298;SDS011;37382;45.192;9.790;2024-01-16T04:00:18;192.50;;;62.42;;
51298;SDS011;37382;45.192;9.790;2024-01-16T04:02:45;179.32;;;63.78;;
51298;SDS011;37382;45.192;9.790;2024-01-16T04:05:13;154.30;;;63.55;;
51298;SDS011;37382;45.192;9.790;2024-01-16T04:07:40;179.13;;;65.70;;
51298;SDS011;37382;45.192;9.790;2024-01-16T04:10:08;169.75;;;64.25;;
51298;SDS011;37382;45.192;9.790;2024-01-16T04:12:35;149.07;;;62.83;;
51298;SDS011;37382;45.192;9.790;2024-01-16T04:15:03;158.50;;;62.67;;
51298;SDS011;37382;45.192;9.790;2024-01-16T04:17:31;158.55;;;63.75;;
51298;SDS011;37382;45.192;9.790;2024-01-16T04:19:58;115.65;;;62.28;;
51298;SDS011;37382;45.192;9.790;2024-01-16T04:22:26;119.60;;;62.63;;
51298;SDS011;37382;45.192;9.790;2024-01-16T04:24:53;133.43;;;61.80;;
51298;SDS011;37382;45.192;9.790;2024-01-16T04:27:21;124.90;;;64.20;;
51298;SDS011;37382;45.192;9.790;2024-01-16T04:29:48;132.60;;;63.03;;
51298;SDS011;37382;45.192;9.790;2024-01-16T04:32:15;131.48;;;63.47;;
51298;SDS011;37382;45.192;9.790;2024-01-16T04:34:43;136.07;;;66.72;;
51298;SDS011;37382;45.192;9.790;2024-01-16T04:37:10;136.77;;;64.15;;
51298;SDS011;37382;45.192;9.790;2024-01-16T04:39:38;128.38;;;62.70;;
51298;SDS011;37382;45.192;9.790;2024-01-16T04:42:05;126.25;;;61.40;;
51298;SDS011;37382;45.192;9.790;2024-01-16T04:44:33;109.88;;;62.15;;
51298;SDS011;37382;45.192;9.790;2024-01-16T04:47:00;146.90;;;62.03;;
51298;SDS011;37382;45.192;9.790;2024-01-16T04:49:29;123.40;;;59.42;;
51298;SDS011;37382;45.192;9.790;2024-01-16T04:51:56;122.55;;;59.50;;
51298;SDS011;37382;45.192;9.790;2024-01-16T04:54:24;111.30;;;59.13;;
51298;SDS011;37382;45.192;9.790;2024-01-16T04:56:51;107.60;;;58.63;;
51298;SDS011;37382;45.192;9.790;2024-01-16T04:59:19;94.43;;;59.85;;
51298;SDS011;37382;45.192;9.790;2024-01-16T05:01:46;96.10;;;59.72;;
51298;SDS011;37382;45.192;9.790;2024-01-16T05:04:14;120.22;;;60.55;;
51298;SDS011;37382;45.192;9.790;2024-01-16T05:06:41;94.50;;;58.65;;
51298;SDS011;37382;45.192;9.790;2024-01-16T05:09:09;104.10;;;58.17;;
51298;SDS011;37382;45.192;9.790;2024-01-16T05:11:36;96.70;;;57.75;;
51298;SDS011;37382;45.192;9.790;2024-01-16T05:14:03;102.35;;;59.53;;
51298;SDS011;37382;45.192;9.790;2024-01-16T05:16:31;115.00;;;62.85;;
51298;SDS011;37382;45.192;9.790;2024-01-16T05:18:58;111.55;;;63.17;;
51298;SDS011;37382;45.192;9.790;2024-01-16T05:21:25;120.53;;;61.35;;
51298;SDS011;37382;45.192;9.790;2024-01-16T05:23:53;121.57;;;62.63;;
51298;SDS011;37382;45.192;9.790;2024-01-16T05:26:20;106.20;;;60.72;;
51298;SDS011;37382;45.192;9.790;2024-01-16T05:28:49;107.82;;;61.42;;
51298;SDS011;37382;45.192;9.790;2024-01-16T05:31:16;100.82;;;57.47;;
51298;SDS011;37382;45.192;9.790;2024-01-16T05:33:44;113.97;;;58.33;;
51298;SDS011;37382;45.192;9.790;2024-01-16T05:36:11;104.15;;;59.90;;
51298;SDS011;37382;45.192;9.790;2024-01-16T05:38:39;98.68;;;57.03;;
51298;SDS011;37382;45.192;9.790;2024-01-16T05:41:07;103.05;;;59.08;;
51298;SDS011;37382;45.192;9.790;2024-01-16T05:43:34;126.40;;;63.38;;
51298;SDS011;37382;45.192;9.790;2024-01-16T05:46:02;114.22;;;55.22;;
51298;SDS011;37382;45.192;9.790;2024-01-16T05:48:29;100.38;;;55.58;;
51298;SDS011;37382;45.192;9.790;2024-01-16T05:50:57;96.35;;;55.92;;
51298;SDS011;37382;45.192;9.790;2024-01-16T05:53:24;91.65;;;52.38;;
51298;SDS011;37382;45.192;9.790;2024-01-16T05:55:51;85.38;;;53.10;;
51298;SDS011;37382;45.192;9.790;2024-01-16T05:58:21;92.40;;;54.30;;
51298;SDS011;37382;45.192;9.790;2024-01-16T06:00:48;90.35;;;52.53;;
51298;SDS011;37382;45.192;9.790;2024-01-16T06:03:16;92.32;;;54.65;;
51298;SDS011;37382;45.192;9.790;2024-01-16T06:05:43;88.68;;;54.08;;
51298;SDS011;37382;45.192;9.790;2024-01-16T06:08:11;102.07;;;54.45;;
51298;SDS011;37382;45.192;9.790;2024-01-16T06:10:38;81.95;;;53.08;;
51298;SDS011;37382;45.192;9.790;2024-01-16T06:13:06;85.35;;;52.05;;
51298;SDS011;37382;45.192;9.790;2024-01-16T06:15:33;80.82;;;51.95;;
51298;SDS011;37382;45.192;9.790;2024-01-16T06:18:00;94.50;;;53.40;;
51298;SDS011;37382;45.192;9.790;2024-01-16T06:20:28;82.43;;;53.40;;
51298;SDS011;37382;45.192;9.790;2024-01-16T06:22:56;87.93;;;54.85;;
51298;SDS011;37382;45.192;9.790;2024-01-16T06:25:23;89.88;;;58.63;;
51298;SDS011;37382;45.192;9.790;2024-01-16T06:27:51;87.95;;;54.05;;
51298;SDS011;37382;45.192;9.790;2024-01-16T06:30:18;79.15;;;51.80;;
51298;SDS011;37382;45.192;9.790;2024-01-16T06:32:46;90.82;;;54.13;;
51298;SDS011;37382;45.192;9.790;2024-01-16T06:35:15;86.43;;;53.67;;
51298;SDS011;37382;45.192;9.790;2024-01-16T06:37:43;88.72;;;53.65;;
51298;SDS011;37382;45.192;9.790;2024-01-16T06:40:11;85.35;;;53.85;;
51298;SDS011;37382;45.192;9.790;2024-01-16T06:42:38;103.05;;;56.65;;
51298;SDS011;37382;45.192;9.790;2024-01-16T06:45:06;93.78;;;55.90;;
51298;SDS011;37382;45.192;9.790;2024-01-16T06:47:33;83.80;;;52.85;;
51298;SDS011;37382;45.192;9.790;2024-01-16T06:50:01;92.95;;;56.45;;
51298;SDS011;37382;45.192;9.790;2024-01-16T06:52:30;97.18;;;58.13;;
51298;SDS011;37382;45.192;9.790;2024-01-16T06:54:57;93.82;;;58.20;;
51298;SDS011;37382;45.192;9.790;2024-01-16T06:57:25;98.38;;;58.40;;
51298;SDS011;37382;45.192;9.790;2024-01-16T06:59:53;90.65;;;54.72;;
51298;SDS011;37382;45.192;9.790;2024-01-16T07:02:21;105.13;;;53.38;;
51298;SDS011;37382;45.192;9.790;2024-01-16T07:04:49;84.10;;;47.38;;
51298;SDS011;37382;45.192;9.790;2024-01-16T07:07:16;98.45;;;51.58;;
51298;SDS011;37382;45.192;9.790;2024-01-16T07:09:45;110.10;;;48.45;;
51298;SDS011;37382;45.192;9.790;2024-01-16T07:12:13;96.72;;;48.30;;
51298;SDS011;37382;45.192;9.790;2024-01-16T07:14:40;124.38;;;52.85;;
51298;SDS011;37382;45.192;9.790;2024-01-16T07:17:08;102.03;;;54.30;;
51298;SDS011;37382;45.192;9.790;2024-01-16T07:19:36;94.93;;;52.05;;
51298;SDS011;37382;45.192;9.790;2024-01-16T07:22:03;91.22;;;51.92;;
51298;SDS011;37382;45.192;9.790;2024-01-16T07:24:31;84.07;;;52.30;;
51298;SDS011;37382;45.192;9.790;2024-01-16T07:26:59;96.63;;;55.83;;
51298;SDS011;37382;45.192;9.790;2024-01-16T07:29:26;95.10;;;52.75;;
51298;SDS011;37382;45.192;9.790;2024-01-16T07:31:53;93.13;;;54.17;;
51298;SDS011;37382;45.192;9.790;2024-01-16T07:34:21;101.00;;;57.30;;
51298;SDS011;37382;45.192;9.790;2024-01-16T07:36:49;112.25;;;56.50;;
51298;SDS011;37382;45.192;9.790;2024-01-16T07:39:16;104.93;;;57.55;;
51298;SDS011;37382;45.192;9.790;2024-01-16T07:41:44;122.80;;;57.45;;
51298;SDS011;37382;45.192;9.790;2024-01-16T07:44:11;126.53;;;60.47;;
51298;SDS011;37382;45.192;9.790;2024-01-16T07:46:39;117.32;;;60.38;;
51298;SDS011;37382;45.192;9.790;2024-01-16T07:49:06;130.93;;;61.92;;
51298;SDS011;37382;45.192;9.790;2024-01-16T07:51:34;115.40;;;59.90;;
51298;SDS011;37382;45.192;9.790;2024-01-16T07:54:06;106.10;;;59.70;;
51298;SDS011;37382;45.192;9.790;2024-01-16T07:56:35;109.63;;;59.72;;
51298;SDS011;37382;45.192;9.790;2024-01-16T07:59:03;110.38;;;63.45;;
51298;SDS011;37382;45.192;9.790;2024-01-16T08:01:31;127.90;;;64.82;;
51298;SDS011;37382;45.192;9.790;2024-01-16T08:03:59;115.03;;;66.30;;
51298;SDS011;37382;45.192;9.790;2024-01-16T08:06:27;138.27;;;65.35;;
51298;SDS011;37382;45.192;9.790;2024-01-16T08:08:55;152.85;;;63.97;;
51298;SDS011;37382;45.192;9.790;2024-01-16T08:11:23;122.88;;;62.20;;
51298;SDS011;37382;45.192;9.790;2024-01-16T08:13:51;126.13;;;60.05;;
51298;SDS011;37382;45.192;9.790;2024-01-16T08:16:18;114.18;;;58.65;;
51298;SDS011;37382;45.192;9.790;2024-01-16T08:18:46;150.02;;;63.08;;
51298;SDS011;37382;45.192;9.790;2024-01-16T08:21:15;132.15;;;64.03;;
51298;SDS011;37382;45.192;9.790;2024-01-16T08:23:42;129.35;;;66.13;;
51298;SDS011;37382;45.192;9.790;2024-01-16T08:26:10;129.05;;;66.47;;
51298;SDS011;37382;45.192;9.790;2024-01-16T08:28:37;140.93;;;71.28;;
51298;SDS011;37382;45.192;9.790;2024-01-16T08:31:04;171.95;;;69.22;;
51298;SDS011;37382;45.192;9.790;2024-01-16T08:33:32;125.03;;;67.65;;
51298;SDS011;37382;45.192;9.790;2024-01-16T08:36:11;152.18;;;68.95;;
51298;SDS011;37382;45.192;9.790;2024-01-16T08:38:39;149.02;;;71.38;;
51298;SDS011;37382;45.192;9.790;2024-01-16T08:41:07;148.13;;;72.35;;
51298;SDS011;37382;45.192;9.790;2024-01-16T08:43:36;143.35;;;75.85;;
51298;SDS011;37382;45.192;9.790;2024-01-16T08:46:03;146.45;;;71.60;;
51298;SDS011;37382;45.192;9.790;2024-01-16T08:48:31;149.02;;;74.30;;
51298;SDS011;37382;45.192;9.790;2024-01-16T08:50:59;155.15;;;77.63;;
51298;SDS011;37382;45.192;9.790;2024-01-16T08:53:29;133.20;;;74.40;;
51298;SDS011;37382;45.192;9.790;2024-01-16T08:55:58;134.88;;;71.85;;
51298;SDS011;37382;45.192;9.790;2024-01-16T08:58:25;121.55;;;69.13;;
51298;SDS011;37382;45.192;9.790;2024-01-16T09:00:53;130.25;;;71.32;;
51298;SDS011;37382;45.192;9.790;2024-01-16T09:03:21;133.65;;;71.88;;
51298;SDS011;37382;45.192;9.790;2024-01-16T09:05:48;124.10;;;69.00;;
51298;SDS011;37382;45.192;9.790;2024-01-16T09:08:16;133.77;;;70.28;;
51298;SDS011;37382;45.192;9.790;2024-01-16T09:10:43;136.63;;;75.38;;
51298;SDS011;37382;45.192;9.790;2024-01-16T09:13:11;111.78;;;70.95;;
51298;SDS011;37382;45.192;9.790;2024-01-16T09:15:39;121.90;;;72.15;;
51298;SDS011;37382;45.192;9.790;2024-01-16T09:18:07;115.70;;;70.55;;
51298;SDS011;37382;45.192;9.790;2024-01-16T09:20:35;119.30;;;72.93;;
51298;SDS011;37382;45.192;9.790;2024-01-16T09:23:02;126.57;;;73.13;;
51298;SDS011;37382;45.192;9.790;2024-01-16T09:25:30;123.88;;;72.20;;
51298;SDS011;37382;45.192;9.790;2024-01-16T09:27:57;110.63;;;67.97;;
51298;SDS011;37382;45.192;9.790;2024-01-16T09:30:24;110.03;;;69.43;;
51298;SDS011;37382;45.192;9.790;2024-01-16T09:32:52;111.70;;;70.60;;
51298;SDS011;37382;45.192;9.790;2024-01-16T09:35:19;118.10;;;72.13;;
51298;SDS011;37382;45.192;9.790;2024-01-16T09:37:49;115.20;;;73.43;;
51298;SDS011;37382;45.192;9.790;2024-01-16T09:40:16;119.60;;;76.72;;
51298;SDS011;37382;45.192;9.790;2024-01-16T09:42:43;130.35;;;75.97;;
51298;SDS011;37382;45.192;9.790;2024-01-16T09:45:12;118.13;;;75.38;;
51298;SDS011;37382;45.192;9.790;2024-01-16T09:47:47;111.93;;;72.95;;
51298;SDS011;37382;45.192;9.790;2024-01-16T09:50:20;120.28;;;73.70;;
51298;SDS011;37382;45.192;9.790;2024-01-16T09:52:48;114.85;;;71.88;;
51298;SDS011;37382;45.192;9.790;2024-01-16T09:55:16;118.78;;;74.43;;
51298;SDS011;37382;45.192;9.790;2024-01-16T09:57:45;117.50;;;73.28;;
51298;SDS011;37382;45.192;9.790;2024-01-16T10:00:13;125.28;;;75.32;;
51298;SDS011;37382;45.192;9.790;2024-01-16T10:02:42;125.53;;;74.53;;
51298;SDS011;37382;45.192;9.790;2024-01-16T10:05:10;119.00;;;75.60;;
51298;SDS011;37382;45.192;9.790;2024-01-16T10:07:40;123.15;;;73.63;;
51298;SDS011;37382;45.192;9.790;2024-01-16T10:10:10;120.82;;;76.57;;
51298;SDS011;37382;45.192;9.790;2024-01-16T10:12:39;119.05;;;73.93;;
51298;SDS011;37382;45.192;9.790;2024-01-16T10:15:07;127.80;;;75.22;;
51298;SDS011;37382;45.192;9.790;2024-01-16T10:17:39;123.00;;;75.35;;
51298;SDS011;37382;45.192;9.790;2024-01-16T10:20:09;115.03;;;72.38;;
51298;SDS011;37382;45.192;9.790;2024-01-16T10:22:41;120.53;;;69.95;;
51298;SDS011;37382;45.192;9.790;2024-01-16T10:25:18;120.10;;;71.82;;
51298;SDS011;37382;45.192;9.790;2024-01-16T10:27:48;113.63;;;71.90;;
51298;SDS011;37382;45.192;9.790;2024-01-16T10:30:16;111.97;;;69.40;;
51298;SDS011;37382;45.192;9.790;2024-01-16T10:32:50;115.30;;;72.38;;
51298;SDS011;37382;45.192;9.790;2024-01-16T10:35:18;122.93;;;74.97;;
51298;SDS011;37382;45.192;9.790;2024-01-16T10:37:53;115.25;;;73.78;;
51298;SDS011;37382;45.192;9.790;2024-01-16T10:40:21;120.65;;;73.38;;
51298;SDS011;37382;45.192;9.790;2024-01-16T10:48:01;119.30;;;70.47;;
51298;SDS011;37382;45.192;9.790;2024-01-16T10:50:34;121.78;;;72.97;;
51298;SDS011;37382;45.192;9.790;2024-01-16T10:53:06;113.57;;;72.50;;
51298;SDS011;37382;45.192;9.790;2024-01-16T10:55:43;119.20;;;77.07;;
51298;SDS011;37382;45.192;9.790;2024-01-16T10:58:20;123.30;;;76.40;;
51298;SDS011;37382;45.192;9.790;2024-01-16T11:00:51;138.48;;;82.22;;
51298;SDS011;37382;45.192;9.790;2024-01-16T11:03:24;141.73;;;87.35;;
51298;SDS011;37382;45.192;9.790;2024-01-16T11:05:59;127.03;;;78.38;;
51298;SDS011;37382;45.192;9.790;2024-01-16T11:08:29;131.35;;;77.70;;
51298;SDS011;37382;45.192;9.790;2024-01-16T11:10:59;125.43;;;78.32;;
51298;SDS011;37382;45.192;9.790;2024-01-16T11:13:28;143.45;;;86.80;;
51298;SDS011;37382;45.192;9.790;2024-01-16T11:15:56;159.30;;;93.75;;
51298;SDS011;37382;45.192;9.790;2024-01-16T11:18:26;137.25;;;80.82;;
51298;SDS011;37382;45.192;9.790;2024-01-16T11:20:54;131.23;;;78.53;;
51298;SDS011;37382;45.192;9.790;2024-01-16T11:23:34;130.98;;;82.38;;
51298;SDS011;37382;45.192;9.790;2024-01-16T11:29:00;128.63;;;77.45;;
51298;SDS011;37382;45.192;9.790;2024-01-16T11:31:48;139.52;;;82.88;;
51298;SDS011;37382;45.192;9.790;2024-01-16T11:34:15;138.65;;;85.00;;
51298;SDS011;37382;45.192;9.790;2024-01-16T11:37:12;145.90;;;88.03;;
51298;SDS011;37382;45.192;9.790;2024-01-16T11:39:41;118.93;;;73.70;;
51298;SDS011;37382;45.192;9.790;2024-01-16T11:42:09;123.43;;;72.40;;
51298;SDS011;37382;45.192;9.790;2024-01-16T11:47:09;118.47;;;70.70;;
51298;SDS011;37382;45.192;9.790;2024-01-16T11:49:43;113.15;;;70.30;;
51298;SDS011;37382;45.192;9.790;2024-01-16T11:52:11;126.68;;;82.13;;
51298;SDS011;37382;45.192;9.790;2024-01-16T11:54:40;107.07;;;64.22;;
51298;SDS011;37382;45.192;9.790;2024-01-16T11:57:17;89.47;;;55.00;;
51298;SDS011;37382;45.192;9.790;2024-01-16T11:59:57;101.45;;;57.13;;
51298;SDS011;37382;45.192;9.790;2024-01-16T12:05:11;86.43;;;52.63;;
51298;SDS011;37382;45.192;9.790;2024-01-16T12:07:45;91.65;;;53.78;;
51298;SDS011;37382;45.192;9.790;2024-01-16T12:10:17;100.28;;;56.72;;
51298;SDS011;37382;45.192;9.790;2024-01-16T12:12:50;102.47;;;61.47;;
51298;SDS011;37382;45.192;9.790;2024-01-16T12:15:19;111.28;;;68.20;;
51298;SDS011;37382;45.192;9.790;2024-01-16T12:18:00;99.47;;;59.60;;
51298;SDS011;37382;45.192;9.790;2024-01-16T12:20:29;84.15;;;52.97;;
51298;SDS011;37382;45.192;9.790;2024-01-16T12:23:02;86.07;;;54.35;;
51298;SDS011;37382;45.192;9.790;2024-01-16T12:25:35;91.13;;;57.67;;
51298;SDS011;37382;45.192;9.790;2024-01-16T12:28:23;101.18;;;61.13;;
51298;SDS011;37382;45.192;9.790;2024-01-16T12:30:59;113.85;;;65.63;;
51298;SDS011;37382;45.192;9.790;2024-01-16T12:33:28;134.40;;;79.93;;
51298;SDS011;37382;45.192;9.790;2024-01-16T12:36:01;131.15;;;76.90;;
51298;SDS011;37382;45.192;9.790;2024-01-16T12:38:30;132.73;;;78.32;;
51298;SDS011;37382;45.192;9.790;2024-01-16T12:40:58;146.32;;;81.72;;
51298;SDS011;37382;45.192;9.790;2024-01-16T12:43:29;130.73;;;80.20;;
51298;SDS011;37382;45.192;9.790;2024-01-16T12:45:59;133.13;;;81.00;;
51298;SDS011;37382;45.192;9.790;2024-01-16T12:48:26;146.13;;;83.07;;
51298;SDS011;37382;45.192;9.790;2024-01-16T12:51:01;132.55;;;78.10;;
51298;SDS011;37382;45.192;9.790;2024-01-16T12:53:31;135.55;;;80.28;;
51298;SDS011;37382;45.192;9.790;2024-01-16T12:56:01;140.70;;;81.88;;
51298;SDS011;37382;45.192;9.790;2024-01-16T12:58:40;140.07;;;80.40;;
51298;SDS011;37382;45.192;9.790;2024-01-16T13:01:27;143.77;;;80.28;;
51298;SDS011;37382;45.192;9.790;2024-01-16T13:04:06;132.30;;;81.30;;
51298;SDS011;37382;45.192;9.790;2024-01-16T13:06:35;139.95;;;79.75;;
51298;SDS011;37382;45.192;9.790;2024-01-16T13:09:07;144.18;;;79.35;;
51298;SDS011;37382;45.192;9.790;2024-01-16T13:11:54;152.43;;;86.53;;
51298;SDS011;37382;45.192;9.790;2024-01-16T13:14:23;154.52;;;91.25;;
51298;SDS011;37382;45.192;9.790;2024-01-16T13:16:52;157.07;;;89.07;;
51298;SDS011;37382;45.192;9.790;2024-01-16T13:19:23;150.55;;;87.55;;
51298;SDS011;37382;45.192;9.790;2024-01-16T13:21:51;175.68;;;95.85;;
51298;SDS011;37382;45.192;9.790;2024-01-16T13:24:19;185.68;;;106.50;;
51298;SDS011;37382;45.192;9.790;2024-01-16T13:26:50;153.32;;;91.50;;
51298;SDS011;37382;45.192;9.790;2024-01-16T13:29:17;159.32;;;88.03;;
51298;SDS011;37382;45.192;9.790;2024-01-16T13:31:46;158.35;;;87.53;;
51298;SDS011;37382;45.192;9.790;2024-01-16T13:34:14;149.68;;;84.60;;
51298;SDS011;37382;45.192;9.790;2024-01-16T13:36:45;152.80;;;85.10;;
51298;SDS011;37382;45.192;9.790;2024-01-16T13:39:32;151.05;;;85.20;;
51298;SDS011;37382;45.192;9.790;2024-01-16T13:42:05;148.13;;;86.80;;
51298;SDS011;37382;45.192;9.790;2024-01-16T13:44:34;149.05;;;84.75;;
51298;SDS011;37382;45.192;9.790;2024-01-16T13:47:01;155.77;;;83.70;;
51298;SDS011;37382;45.192;9.790;2024-01-16T13:49:38;145.45;;;82.30;;
51298;SDS011;37382;45.192;9.790;2024-01-16T13:52:05;165.35;;;86.70;;
51298;SDS011;37382;45.192;9.790;2024-01-16T13:54:35;169.75;;;88.18;;
51298;SDS011;37382;45.192;9.790;2024-01-16T13:57:03;163.60;;;87.80;;
51298;SDS011;37382;45.192;9.790;2024-01-16T13:59:35;164.90;;;89.07;;
51298;SDS011;37382;45.192;9.790;2024-01-16T14:02:03;149.73;;;81.22;;
51298;SDS011;37382;45.192;9.790;2024-01-16T14:04:35;160.07;;;84.28;;
51298;SDS011;37382;45.192;9.790;2024-01-16T14:07:03;146.55;;;81.07;;
51298;SDS011;37382;45.192;9.790;2024-01-16T14:09:40;135.95;;;78.10;;
51298;SDS011;37382;45.192;9.790;2024-01-16T14:12:11;132.80;;;79.22;;
51298;SDS011;37382;45.192;9.790;2024-01-16T14:14:42;126.15;;;74.47;;
51298;SDS011;37382;45.192;9.790;2024-01-16T14:17:10;126.33;;;73.87;;
51298;SDS011;37382;45.192;9.790;2024-01-16T14:19:39;126.38;;;73.50;;
51298;SDS011;37382;45.192;9.790;2024-01-16T14:22:06;125.32;;;72.55;;
51298;SDS011;37382;45.192;9.790;2024-01-16T14:24:34;123.25;;;70.28;;
51298;SDS011;37382;45.192;9.790;2024-01-16T14:27:02;126.90;;;71.70;;
51298;SDS011;37382;45.192;9.790;2024-01-16T14:29:29;128.43;;;72.82;;
51298;SDS011;37382;45.192;9.790;2024-01-16T14:31:57;123.15;;;70.53;;
51298;SDS011;37382;45.192;9.790;2024-01-16T14:34:25;126.15;;;73.63;;
51298;SDS011;37382;45.192;9.790;2024-01-16T14:36:53;123.65;;;71.32;;